sensor_id;sensor_type;location;lat;lon;timestamp;pressure;altitude;pressure_sealevel;temperature;humidity
14612;BME280;7392;52.078;11.650;2023-09-18T00:01:28;100432.50;;;18.19;99.34
14612;BME280;7392;52.078;11.650;2023-09-18T00:03:56;100428.97;;;18.18;99.13
14612;BME280;7392;52.078;11.650;2023-09-18T00:06:26;100434.38;;;18.17;99.13
14612;BME280;7392;52.078;11.650;2023-09-18T00:08:53;100419.28;;;18.14;98.84
14612;BME280;7392;52.078;11.650;2023-09-18T00:11:21;100417.56;;;18.11;98.47
14612;BME280;7392;52.078;11.650;2023-09-18T00:13:49;100415.81;;;18.10;98.29
14612;BME280;7392;52.078;11.650;2023-09-18T00:16:18;100415.88;;;18.09;98.21
14612;BME280;7392;52.078;11.650;2023-09-18T00:18:46;100408.75;;;18.08;98.45
14612;BME280;7392;52.078;11.650;2023-09-18T00:21:14;100410.63;;;18.06;98.37
14612;BME280;7392;52.078;11.650;2023-09-18T00:23:43;100416.00;;;18.06;98.89
14612;BME280;7392;52.078;11.650;2023-09-18T00:26:10;100413.38;;;18.04;98.88
14612;BME280;7392;52.078;11.650;2023-09-18T00:28:41;100416.97;;;18.03;98.94
14612;BME280;7392;52.078;11.650;2023-09-18T00:31:09;100412.63;;;18.01;98.76
14612;BME280;7392;52.078;11.650;2023-09-18T00:33:38;100414.50;;;17.99;98.91
14612;BME280;7392;52.078;11.650;2023-09-18T00:36:06;100412.78;;;17.96;99.04
14612;BME280;7392;52.078;11.650;2023-09-18T00:38:34;100422.72;;;17.94;99.18
14612;BME280;7392;52.078;11.650;2023-09-18T00:41:02;100429.00;;;17.93;99.32
14612;BME280;7392;52.078;11.650;2023-09-18T00:43:30;100420.19;;;17.89;99.15
14612;BME280;7392;52.078;11.650;2023-09-18T00:45:58;100419.38;;;17.87;99.35
14612;BME280;7392;52.078;11.650;2023-09-18T00:48:26;100409.66;;;17.83;99.14
14612;BME280;7392;52.078;11.650;2023-09-18T00:50:56;100407.03;;;17.82;99.27
14612;BME280;7392;52.078;11.650;2023-09-18T00:53:25;100415.16;;;17.80;99.39
14612;BME280;7392;52.078;11.650;2023-09-18T00:55:56;100406.28;;;17.78;99.44
14612;BME280;7392;52.078;11.650;2023-09-18T00:58:26;100398.28;;;17.76;99.61
14612;BME280;7392;52.078;11.650;2023-09-18T01:00:54;100399.25;;;17.74;99.98
14612;BME280;7392;52.078;11.650;2023-09-18T01:03:22;100400.25;;;17.71;99.91
14612;BME280;7392;52.078;11.650;2023-09-18T01:05:53;100392.19;;;17.71;100.00
14612;BME280;7392;52.078;11.650;2023-09-18T01:08:23;100380.63;;;17.69;100.00
14612;BME280;7392;52.078;11.650;2023-09-18T01:10:56;100373.44;;;17.70;100.00
14612;BME280;7392;52.078;11.650;2023-09-18T01:13:30;100373.44;;;17.70;100.00
14612;BME280;7392;52.078;11.650;2023-09-18T01:16:07;100372.56;;;17.69;100.00
14612;BME280;7392;52.078;11.650;2023-09-18T01:18:36;100354.72;;;17.68;100.00
14612;BME280;7392;52.078;11.650;2023-09-18T01:21:04;100346.72;;;17.67;100.00
14612;BME280;7392;52.078;11.650;2023-09-18T01:23:33;100342.25;;;17.66;100.00
14612;BME280;7392;52.078;11.650;2023-09-18T01:26:01;100341.41;;;17.65;100.00
14612;BME280;7392;52.078;11.650;2023-09-18T01:28:29;100342.31;;;17.64;100.00
14612;BME280;7392;52.078;11.650;2023-09-18T01:30:57;100338.78;;;17.64;100.00
14612;BME280;7392;52.078;11.650;2023-09-18T01:33:26;100331.63;;;17.63;100.00
14612;BME280;7392;52.078;11.650;2023-09-18T01:35:55;100324.47;;;17.63;100.00
14612;BME280;7392;52.078;11.650;2023-09-18T01:38:24;100314.66;;;17.62;100.00
14612;BME280;7392;52.078;11.650;2023-09-18T01:40:54;100311.97;;;17.62;100.00
14612;BME280;7392;52.078;11.650;2023-09-18T01:43:24;100306.66;;;17.61;100.00
14612;BME280;7392;52.078;11.650;2023-09-18T01:45:54;100313.84;;;17.60;100.00
14612;BME280;7392;52.078;11.650;2023-09-18T01:48:23;100306.72;;;17.59;100.00
14612;BME280;7392;52.078;11.650;2023-09-18T01:50:51;100314.81;;;17.57;100.00
14612;BME280;7392;52.078;11.650;2023-09-18T01:53:19;100311.38;;;17.54;100.00
14612;BME280;7392;52.078;11.650;2023-09-18T01:55:47;100312.34;;;17.53;100.00
14612;BME280;7392;52.078;11.650;2023-09-18T01:58:16;100309.75;;;17.50;100.00
14612;BME280;7392;52.078;11.650;2023-09-18T02:00:45;100305.38;;;17.47;100.00
14612;BME280;7392;52.078;11.650;2023-09-18T02:03:13;100305.38;;;17.47;100.00
14612;BME280;7392;52.078;11.650;2023-09-18T02:06:04;100309.97;;;17.44;100.00
14612;BME280;7392;52.078;11.650;2023-09-18T02:08:32;100306.47;;;17.42;100.00
14612;BME280;7392;52.078;11.650;2023-09-18T02:11:01;100300.31;;;17.39;100.00
14612;BME280;7392;52.078;11.650;2023-09-18T02:13:31;100296.75;;;17.39;100.00
14612;BME280;7392;52.078;11.650;2023-09-18T02:15:58;100297.72;;;17.36;100.00
14612;BME280;7392;52.078;11.650;2023-09-18T02:18:26;100292.47;;;17.33;100.00
14612;BME280;7392;52.078;11.650;2023-09-18T02:20:54;100288.91;;;17.33;100.00
14612;BME280;7392;52.078;11.650;2023-09-18T02:23:22;100281.78;;;17.32;100.00
14612;BME280;7392;52.078;11.650;2023-09-18T02:25:55;100282.75;;;17.31;100.00
14612;BME280;7392;52.078;11.650;2023-09-18T02:28:24;100289.09;;;17.28;100.00
14612;BME280;7392;52.078;11.650;2023-09-18T02:30:53;100278.41;;;17.27;100.00
14612;BME280;7392;52.078;11.650;2023-09-18T02:33:21;100274.91;;;17.25;100.00
14612;BME280;7392;52.078;11.650;2023-09-18T02:35:49;100271.34;;;17.24;100.00
14612;BME280;7392;52.078;11.650;2023-09-18T02:38:17;100266.84;;;17.25;100.00
14612;BME280;7392;52.078;11.650;2023-09-18T02:40:45;100260.69;;;17.23;100.00
14612;BME280;7392;52.078;11.650;2023-09-18T02:43:13;100264.28;;;17.22;100.00
14612;BME280;7392;52.078;11.650;2023-09-18T02:45:40;100269.66;;;17.22;100.00
14612;BME280;7392;52.078;11.650;2023-09-18T02:48:10;100270.59;;;17.20;100.00
14612;BME280;7392;52.078;11.650;2023-09-18T02:50:38;100267.97;;;17.19;100.00
14612;BME280;7392;52.078;11.650;2023-09-18T02:53:07;100269.72;;;17.20;100.00
14612;BME280;7392;52.078;11.650;2023-09-18T02:55:36;100260.84;;;17.18;100.00
14612;BME280;7392;52.078;11.650;2023-09-18T02:58:04;100266.22;;;17.18;100.00
14612;BME280;7392;52.078;11.650;2023-09-18T03:00:32;100260.84;;;17.18;100.00
14612;BME280;7392;52.078;11.650;2023-09-18T03:03:12;100260.03;;;17.16;100.00
14612;BME280;7392;52.078;11.650;2023-09-18T03:05:41;100266.34;;;17.15;100.00
14612;BME280;7392;52.078;11.650;2023-09-18T03:08:09;100266.41;;;17.13;100.00
14612;BME280;7392;52.078;11.650;2023-09-18T03:10:40;100258.34;;;17.13;100.00
14612;BME280;7392;52.078;11.650;2023-09-18T03:13:09;100264.69;;;17.11;100.00
14612;BME280;7392;52.078;11.650;2023-09-18T03:15:37;100259.44;;;17.08;100.00
14612;BME280;7392;52.078;11.650;2023-09-18T03:18:06;100249.72;;;17.05;100.00
14612;BME280;7392;52.078;11.650;2023-09-18T03:20:36;100247.03;;;17.05;100.00
14612;BME280;7392;52.078;11.650;2023-09-18T03:23:04;100240.91;;;17.01;100.00
14612;BME280;7392;52.078;11.650;2023-09-18T03:25:32;100237.38;;;16.99;100.00
14612;BME280;7392;52.078;11.650;2023-09-18T03:28:18;100232.09;;;16.98;100.00
14612;BME280;7392;52.078;11.650;2023-09-18T03:30:46;100227.66;;;16.97;100.00
14612;BME280;7392;52.078;11.650;2023-09-18T03:33:17;100225.03;;;16.95;100.00
14612;BME280;7392;52.078;11.650;2023-09-18T03:35:47;100224.16;;;16.95;100.00
14612;BME280;7392;52.078;11.650;2023-09-18T03:38:19;100224.25;;;16.92;100.00
14612;BME280;7392;52.078;11.650;2023-09-18T03:40:47;100223.41;;;16.91;100.00
14612;BME280;7392;52.078;11.650;2023-09-18T03:43:16;100222.56;;;16.89;100.00
14612;BME280;7392;52.078;11.650;2023-09-18T03:45:44;100223.44;;;16.90;100.00
14612;BME280;7392;52.078;11.650;2023-09-18T03:48:12;100216.31;;;16.89;100.00
14612;BME280;7392;52.078;11.650;2023-09-18T03:50:40;100208.22;;;16.90;100.00
14612;BME280;7392;52.078;11.650;2023-09-18T03:53:10;100201.03;;;16.91;100.00
14612;BME280;7392;52.078;11.650;2023-09-18T03:55:38;100198.41;;;16.89;100.00
14612;BME280;7392;52.078;11.650;2023-09-18T03:58:06;100200.19;;;16.90;100.00
14612;BME280;7392;52.078;11.650;2023-09-18T04:00:34;100185.91;;;16.90;100.00
14612;BME280;7392;52.078;11.650;2023-09-18T04:03:02;100174.38;;;16.88;100.00
14612;BME280;7392;52.078;11.650;2023-09-18T04:05:30;100178.81;;;16.87;100.00
14612;BME280;7392;52.078;11.650;2023-09-18T04:07:59;100190.47;;;16.88;100.00
14612;BME280;7392;52.078;11.650;2023-09-18T04:10:28;100185.09;;;16.88;100.00
14612;BME280;7392;52.078;11.650;2023-09-18T04:12:56;100177.16;;;16.85;100.00
14612;BME280;7392;52.078;11.650;2023-09-18T04:15:24;100178.03;;;16.83;100.00
14612;BME280;7392;52.078;11.650;2023-09-18T04:17:52;100179.00;;;16.82;100.00
14612;BME280;7392;52.078;11.650;2023-09-18T04:20:20;100171.06;;;16.79;100.00
14612;BME280;7392;52.078;11.650;2023-09-18T04:23:20;100175.59;;;16.77;100.00
14612;BME280;7392;52.078;11.650;2023-09-18T04:25:50;100168.59;;;16.73;100.00
14612;BME280;7392;52.078;11.650;2023-09-18T04:28:19;100169.44;;;16.74;100.00
14612;BME280;7392;52.078;11.650;2023-09-18T04:30:48;100166.78;;;16.74;100.00
14612;BME280;7392;52.078;11.650;2023-09-18T04:33:17;100161.41;;;16.74;100.00
14612;BME280;7392;52.078;11.650;2023-09-18T04:35:46;100156.94;;;16.74;100.00
14612;BME280;7392;52.078;11.650;2023-09-18T04:38:14;100148.84;;;16.76;100.00
14612;BME280;7392;52.078;11.650;2023-09-18T04:40:43;100139.84;;;16.77;100.00
14612;BME280;7392;52.078;11.650;2023-09-18T04:43:14;100138.94;;;16.78;100.00
14612;BME280;7392;52.078;11.650;2023-09-18T04:45:42;100138.94;;;16.78;100.00
14612;BME280;7392;52.078;11.650;2023-09-18T04:48:12;100132.69;;;16.77;100.00
14612;BME280;7392;52.078;11.650;2023-09-18T04:50:39;100131.81;;;16.77;100.00
14612;BME280;7392;52.078;11.650;2023-09-18T04:53:07;100131.81;;;16.77;100.00
14612;BME280;7392;52.078;11.650;2023-09-18T04:55:35;100127.34;;;16.77;100.00
14612;BME280;7392;52.078;11.650;2023-09-18T04:58:05;100127.25;;;16.79;100.00
14612;BME280;7392;52.078;11.650;2023-09-18T05:00:34;100119.16;;;16.80;100.00
14612;BME280;7392;52.078;11.650;2023-09-18T05:03:03;100125.41;;;16.81;100.00
14612;BME280;7392;52.078;11.650;2023-09-18T05:05:33;100118.22;;;16.81;100.00
14612;BME280;7392;52.078;11.650;2023-09-18T05:08:01;100100.28;;;16.83;100.00
14612;BME280;7392;52.078;11.650;2023-09-18T05:10:31;100097.59;;;16.83;100.00
14612;BME280;7392;52.078;11.650;2023-09-18T05:12:59;100100.25;;;16.85;100.00
14612;BME280;7392;52.078;11.650;2023-09-18T05:15:28;100100.19;;;16.87;100.00
14612;BME280;7392;52.078;11.650;2023-09-18T05:17:58;100099.34;;;16.86;100.00
14612;BME280;7392;52.078;11.650;2023-09-18T05:20:27;100100.25;;;16.85;100.00
14612;BME280;7392;52.078;11.650;2023-09-18T05:22:57;100089.47;;;16.87;100.00
14612;BME280;7392;52.078;11.650;2023-09-18T05:25:26;100090.34;;;16.87;100.00
14612;BME280;7392;52.078;11.650;2023-09-18T05:27:57;100097.53;;;16.87;100.00
14612;BME280;7392;52.078;11.650;2023-09-18T05:30:27;100086.78;;;16.87;100.00
14612;BME280;7392;52.078;11.650;2023-09-18T05:32:59;100093.97;;;16.86;100.00
14612;BME280;7392;52.078;11.650;2023-09-18T05:35:31;100085.03;;;16.86;100.00
14612;BME280;7392;52.078;11.650;2023-09-18T05:37:59;100083.25;;;16.86;100.00
14612;BME280;7392;52.078;11.650;2023-09-18T05:40:26;100069.78;;;16.88;100.00
14612;BME280;7392;52.078;11.650;2023-09-18T05:42:55;100072.38;;;16.89;100.00
14612;BME280;7392;52.078;11.650;2023-09-18T05:45:23;100067.91;;;16.90;100.00
14612;BME280;7392;52.078;11.650;2023-09-18T05:47:51;100066.97;;;16.91;100.00
14612;BME280;7392;52.078;11.650;2023-09-18T05:50:21;100058.78;;;16.94;100.00
14612;BME280;7392;52.078;11.650;2023-09-18T05:52:51;100056.00;;;16.97;100.00
14612;BME280;7392;52.078;11.650;2023-09-18T05:55:19;100065.66;;;17.01;100.00
14612;BME280;7392;52.078;11.650;2023-09-18T05:57:47;100050.47;;;17.01;100.00
14612;BME280;7392;52.078;11.650;2023-09-18T06:00:15;100041.41;;;17.04;100.00
14612;BME280;7392;52.078;11.650;2023-09-18T06:02:44;100035.91;;;17.07;100.00
14612;BME280;7392;52.078;11.650;2023-09-18T06:05:13;100038.50;;;17.10;100.00
14612;BME280;7392;52.078;11.650;2023-09-18T06:07:44;100041.00;;;17.15;100.00
14612;BME280;7392;52.078;11.650;2023-09-18T06:10:12;100038.09;;;17.19;100.00
14612;BME280;7392;52.078;11.650;2023-09-18T06:12:40;100037.94;;;17.24;100.00
14612;BME280;7392;52.078;11.650;2023-09-18T06:15:09;100028.78;;;17.28;100.00
14612;BME280;7392;52.078;11.650;2023-09-18T06:17:38;100031.25;;;17.34;100.00
14612;BME280;7392;52.078;11.650;2023-09-18T06:20:07;100029.25;;;17.39;100.00
14612;BME280;7392;52.078;11.650;2023-09-18T06:22:37;100004.84;;;17.46;100.00
14612;BME280;7392;52.078;11.650;2023-09-18T06:25:07;100021.63;;;17.51;100.00
14612;BME280;7392;52.078;11.650;2023-09-18T06:27:37;100019.53;;;17.57;100.00
14612;BME280;7392;52.078;11.650;2023-09-18T06:30:06;100019.34;;;17.62;100.00
14612;BME280;7392;52.078;11.650;2023-09-18T06:32:34;100024.50;;;17.67;100.00
14612;BME280;7392;52.078;11.650;2023-09-18T06:35:04;100027.00;;;17.71;100.00
14612;BME280;7392;52.078;11.650;2023-09-18T06:37:33;100033.00;;;17.78;100.00
14612;BME280;7392;52.078;11.650;2023-09-18T06:40:00;100042.53;;;17.85;100.00
14612;BME280;7392;52.078;11.650;2023-09-18T06:42:32;100045.03;;;17.90;100.00
14612;BME280;7392;52.078;11.650;2023-09-18T06:45:00;100057.34;;;17.96;100.00
14612;BME280;7392;52.078;11.650;2023-09-18T06:47:33;100056.91;;;18.05;100.00
14612;BME280;7392;52.078;11.650;2023-09-18T06:50:03;100050.38;;;18.10;100.00
14612;BME280;7392;52.078;11.650;2023-09-18T06:52:32;100042.88;;;18.19;100.00
14612;BME280;7392;52.078;11.650;2023-09-18T06:55:00;100034.47;;;18.26;100.00
14612;BME280;7392;52.078;11.650;2023-09-18T06:57:28;100020.75;;;18.32;100.00
14612;BME280;7392;52.078;11.650;2023-09-18T06:59:57;100012.34;;;18.40;100.00
14612;BME280;7392;52.078;11.650;2023-09-18T07:02:25;100000.34;;;18.47;100.00
14612;BME280;7392;52.078;11.650;2023-09-18T07:04:53;99995.50;;;18.56;99.81
14612;BME280;7392;52.078;11.650;2023-09-18T07:07:22;99988.00;;;18.62;98.94
14612;BME280;7392;52.078;11.650;2023-09-18T07:09:52;99977.78;;;18.71;98.58
14612;BME280;7392;52.078;11.650;2023-09-18T07:12:31;99980.94;;;18.79;97.99
14612;BME280;7392;52.078;11.650;2023-09-18T07:15:01;99960.84;;;18.87;97.98
14612;BME280;7392;52.078;11.650;2023-09-18T07:17:32;99967.66;;;18.95;97.28
14612;BME280;7392;52.078;11.650;2023-09-18T07:20:00;99976.25;;;19.03;96.85
14612;BME280;7392;52.078;11.650;2023-09-18T07:22:34;99979.41;;;19.11;96.83
14612;BME280;7392;52.078;11.650;2023-09-18T07:25:02;100000.56;;;19.19;96.20
14612;BME280;7392;52.078;11.650;2023-09-18T07:27:30;99996.53;;;19.28;95.96
14612;BME280;7392;52.078;11.650;2023-09-18T07:29:58;99980.72;;;19.39;95.43
14612;BME280;7392;52.078;11.650;2023-09-18T07:32:27;99983.81;;;19.49;95.36
14612;BME280;7392;52.078;11.650;2023-09-18T07:35:05;99974.28;;;19.59;94.59
14612;BME280;7392;52.078;11.650;2023-09-18T07:37:34;99967.75;;;19.65;93.88
14612;BME280;7392;52.078;11.650;2023-09-18T07:40:02;99968.16;;;19.74;93.68
14612;BME280;7392;52.078;11.650;2023-09-18T07:42:30;99982.09;;;19.83;93.00
14612;BME280;7392;52.078;11.650;2023-09-18T07:44:59;99971.94;;;19.88;91.54
14612;BME280;7392;52.078;11.650;2023-09-18T07:47:28;99980.56;;;19.94;90.27
14612;BME280;7392;52.078;11.650;2023-09-18T07:49:57;99981.97;;;20.02;89.95
14612;BME280;7392;52.078;11.650;2023-09-18T07:52:25;99989.75;;;20.08;89.42
14612;BME280;7392;52.078;11.650;2023-09-18T07:54:53;99982.28;;;20.13;88.97
14612;BME280;7392;52.078;11.650;2023-09-18T07:57:21;99963.97;;;20.20;88.82
14612;BME280;7392;52.078;11.650;2023-09-18T07:59:50;99962.81;;;20.24;88.82
14612;BME280;7392;52.078;11.650;2023-09-18T08:02:18;99963.44;;;20.29;88.91
14612;BME280;7392;52.078;11.650;2023-09-18T08:04:47;99967.72;;;20.33;88.80
14612;BME280;7392;52.078;11.650;2023-09-18T08:07:16;99975.47;;;20.39;88.78
14612;BME280;7392;52.078;11.650;2023-09-18T08:09:44;99962.69;;;20.43;88.28
14612;BME280;7392;52.078;11.650;2023-09-18T08:12:15;99970.53;;;20.47;88.40
14612;BME280;7392;52.078;11.650;2023-09-18T08:14:43;99974.69;;;20.53;88.44
14612;BME280;7392;52.078;11.650;2023-09-18T08:17:11;99963.66;;;20.58;88.28
14612;BME280;7392;52.078;11.650;2023-09-18T08:19:39;99961.59;;;20.63;88.64
14612;BME280;7392;52.078;11.650;2023-09-18T08:22:08;99961.28;;;20.69;88.49
14612;BME280;7392;52.078;11.650;2023-09-18T08:24:38;99951.00;;;20.76;87.81
14612;BME280;7392;52.078;11.650;2023-09-18T08:27:06;99959.78;;;20.79;87.66
14612;BME280;7392;52.078;11.650;2023-09-18T08:29:33;99962.94;;;20.87;87.72
14612;BME280;7392;52.078;11.650;2023-09-18T08:32:01;99950.91;;;20.93;87.56
14612;BME280;7392;52.078;11.650;2023-09-18T08:34:29;99964.91;;;21.00;87.71
14612;BME280;7392;52.078;11.650;2023-09-18T08:36:57;99969.94;;;21.06;86.95
14612;BME280;7392;52.078;11.650;2023-09-18T08:39:26;99990.41;;;21.10;86.58
14612;BME280;7392;52.078;11.650;2023-09-18T08:41:58;99981.16;;;21.14;86.36
14612;BME280;7392;52.078;11.650;2023-09-18T08:44:26;99971.94;;;21.18;86.43
14612;BME280;7392;52.078;11.650;2023-09-18T08:46:55;99976.28;;;21.21;85.59
14612;BME280;7392;52.078;11.650;2023-09-18T08:49:24;99981.41;;;21.25;84.23
14612;BME280;7392;52.078;11.650;2023-09-18T08:51:54;99982.03;;;21.30;84.19
14612;BME280;7392;52.078;11.650;2023-09-18T08:54:22;100000.53;;;21.37;84.46
14612;BME280;7392;52.078;11.650;2023-09-18T08:56:52;100002.03;;;21.42;83.54
14612;BME280;7392;52.078;11.650;2023-09-18T08:59:21;99987.41;;;21.46;83.54
14612;BME280;7392;52.078;11.650;2023-09-18T09:01:49;99966.41;;;21.52;83.34
14612;BME280;7392;52.078;11.650;2023-09-18T09:04:17;99971.44;;;21.58;83.20
14612;BME280;7392;52.078;11.650;2023-09-18T09:06:45;99972.63;;;21.68;83.34
14612;BME280;7392;52.078;11.650;2023-09-18T09:09:14;99973.03;;;21.76;82.95
14612;BME280;7392;52.078;11.650;2023-09-18T09:11:48;99968.13;;;21.83;82.17
14612;BME280;7392;52.078;11.650;2023-09-18T09:14:18;99963.41;;;21.87;81.59
14612;BME280;7392;52.078;11.650;2023-09-18T09:16:49;99978.28;;;21.94;81.16
14612;BME280;7392;52.078;11.650;2023-09-18T09:19:18;99973.44;;;21.99;79.94
14612;BME280;7392;52.078;11.650;2023-09-18T09:21:55;99969.03;;;22.12;80.29
14612;BME280;7392;52.078;11.650;2023-09-18T09:24:40;99974.69;;;22.22;79.21
14612;BME280;7392;52.078;11.650;2023-09-18T09:27:09;99972.66;;;22.26;79.27
14612;BME280;7392;52.078;11.650;2023-09-18T09:29:38;99963.53;;;22.28;79.02
14612;BME280;7392;52.078;11.650;2023-09-18T09:32:13;99974.25;;;22.30;78.61
14612;BME280;7392;52.078;11.650;2023-09-18T09:34:43;99972.31;;;22.32;78.84
14612;BME280;7392;52.078;11.650;2023-09-18T09:37:12;99959.66;;;22.32;78.69
14612;BME280;7392;52.078;11.650;2023-09-18T09:39:48;99959.47;;;22.35;79.06
14612;BME280;7392;52.078;11.650;2023-09-18T09:42:18;99958.44;;;22.38;79.36
14612;BME280;7392;52.078;11.650;2023-09-18T09:45:01;99953.78;;;22.40;78.64
14612;BME280;7392;52.078;11.650;2023-09-18T09:47:33;99960.06;;;22.40;78.74
14612;BME280;7392;52.078;11.650;2023-09-18T09:50:06;99949.22;;;22.40;77.81
14612;BME280;7392;52.078;11.650;2023-09-18T09:52:36;99951.94;;;22.40;77.89
14612;BME280;7392;52.078;11.650;2023-09-18T09:55:22;99954.66;;;22.40;77.69
14612;BME280;7392;52.078;11.650;2023-09-18T09:57:53;99956.59;;;22.38;78.21
14612;BME280;7392;52.078;11.650;2023-09-18T10:00:25;99954.97;;;22.36;78.25
14612;BME280;7392;52.078;11.650;2023-09-18T10:02:59;99956.88;;;22.34;78.49
14612;BME280;7392;52.078;11.650;2023-09-18T10:05:31;99958.72;;;22.33;78.61
14612;BME280;7392;52.078;11.650;2023-09-18T10:08:03;99959.75;;;22.31;78.77
14612;BME280;7392;52.078;11.650;2023-09-18T10:10:34;99951.78;;;22.29;78.96
14612;BME280;7392;52.078;11.650;2023-09-18T10:13:07;99951.88;;;22.28;79.32
14612;BME280;7392;52.078;11.650;2023-09-18T10:15:39;99946.47;;;22.28;79.73
14612;BME280;7392;52.078;11.650;2023-09-18T10:18:19;99951.66;;;22.31;79.93
14612;BME280;7392;52.078;11.650;2023-09-18T10:20:51;99941.72;;;22.31;80.31
14612;BME280;7392;52.078;11.650;2023-09-18T10:23:37;99950.50;;;22.35;80.23
14612;BME280;7392;52.078;11.650;2023-09-18T10:26:07;99946.53;;;22.40;80.86
14612;BME280;7392;52.078;11.650;2023-09-18T10:31:15;99930.41;;;22.53;80.90
14612;BME280;7392;52.078;11.650;2023-09-18T10:33:43;99935.19;;;22.63;81.00
14612;BME280;7392;52.078;11.650;2023-09-18T10:36:12;99929.28;;;22.70;81.21
14612;BME280;7392;52.078;11.650;2023-09-18T10:38:41;99925.97;;;22.79;80.70
14612;BME280;7392;52.078;11.650;2023-09-18T10:41:11;99920.06;;;22.87;80.90
14612;BME280;7392;52.078;11.650;2023-09-18T10:43:38;99923.75;;;22.99;81.24
14612;BME280;7392;52.078;11.650;2023-09-18T10:46:06;99922.81;;;23.14;81.38
14612;BME280;7392;52.078;11.650;2023-09-18T10:48:36;99929.31;;;23.25;80.70
14612;BME280;7392;52.078;11.650;2023-09-18T10:51:10;99925.66;;;23.39;80.46
14612;BME280;7392;52.078;11.650;2023-09-18T10:53:40;99921.34;;;23.49;80.48
14612;BME280;7392;52.078;11.650;2023-09-18T10:56:08;99910.19;;;23.53;79.86
14612;BME280;7392;52.078;11.650;2023-09-18T10:58:37;99897.97;;;23.61;80.06
14612;BME280;7392;52.078;11.650;2023-09-18T11:01:05;99903.59;;;23.70;79.93
14612;BME280;7392;52.078;11.650;2023-09-18T11:03:33;99904.78;;;23.79;79.28
14612;BME280;7392;52.078;11.650;2023-09-18T11:06:04;99906.88;;;23.88;78.63
14612;BME280;7392;52.078;11.650;2023-09-18T11:08:33;99899.09;;;23.97;78.27
14612;BME280;7392;52.078;11.650;2023-09-18T11:11:03;99904.94;;;24.03;77.88
14612;BME280;7392;52.078;11.650;2023-09-18T11:13:40;99912.72;;;24.08;77.45
14612;BME280;7392;52.078;11.650;2023-09-18T11:16:33;99915.22;;;24.11;75.77
14612;BME280;7392;52.078;11.650;2023-09-18T11:19:08;99916.06;;;24.12;75.78
14612;BME280;7392;52.078;11.650;2023-09-18T11:21:39;99923.13;;;24.14;75.79
14612;BME280;7392;52.078;11.650;2023-09-18T11:24:08;99926.50;;;24.18;76.27
14612;BME280;7392;52.078;11.650;2023-09-18T11:26:44;99916.28;;;24.21;76.04
14612;BME280;7392;52.078;11.650;2023-09-18T11:29:14;99914.97;;;24.27;76.64
14612;BME280;7392;52.078;11.650;2023-09-18T11:31:47;99918.31;;;24.31;77.25
14612;BME280;7392;52.078;11.650;2023-09-18T11:34:20;99915.38;;;24.34;77.27
14612;BME280;7392;52.078;11.650;2023-09-18T11:36:50;99928.63;;;24.38;76.74
14612;BME280;7392;52.078;11.650;2023-09-18T11:39:35;99930.38;;;24.39;74.90
14612;BME280;7392;52.078;11.650;2023-09-18T11:42:10;99937.72;;;24.37;74.08
14612;BME280;7392;52.078;11.650;2023-09-18T11:44:39;99929.50;;;24.39;74.48
14612;BME280;7392;52.078;11.650;2023-09-18T11:47:15;99921.34;;;24.39;74.01
14612;BME280;7392;52.078;11.650;2023-09-18T11:49:49;99905.06;;;24.39;73.48
14612;BME280;7392;52.078;11.650;2023-09-18T11:52:23;99912.03;;;24.43;74.26
14612;BME280;7392;52.078;11.650;2023-09-18T11:54:53;99923.50;;;24.46;74.14
14612;BME280;7392;52.078;11.650;2023-09-18T11:57:21;99921.16;;;24.55;75.17
14612;BME280;7392;52.078;11.650;2023-09-18T11:59:50;99913.28;;;24.63;75.16
14612;BME280;7392;52.078;11.650;2023-09-18T12:02:35;99915.31;;;24.72;74.89
14612;BME280;7392;52.078;11.650;2023-09-18T12:05:05;99910.19;;;24.80;74.80
14612;BME280;7392;52.078;11.650;2023-09-18T12:07:38;99915.16;;;24.87;74.50
14612;BME280;7392;52.078;11.650;2023-09-18T12:10:08;99923.47;;;24.96;73.34
14612;BME280;7392;52.078;11.650;2023-09-18T12:12:37;99919.94;;;25.07;72.38
14612;BME280;7392;52.078;11.650;2023-09-18T12:15:05;99915.94;;;25.24;71.89
14612;BME280;7392;52.078;11.650;2023-09-18T12:17:33;99909.75;;;25.35;69.30
14612;BME280;7392;52.078;11.650;2023-09-18T12:20:02;99893.81;;;25.42;68.06
14612;BME280;7392;52.078;11.650;2023-09-18T12:22:31;99893.56;;;25.45;66.75
14612;BME280;7392;52.078;11.650;2023-09-18T12:25:10;99892.38;;;25.49;66.84
14612;BME280;7392;52.078;11.650;2023-09-18T12:27:42;99906.56;;;25.52;66.41
14612;BME280;7392;52.078;11.650;2023-09-18T12:30:12;99904.47;;;25.56;66.79
14612;BME280;7392;52.078;11.650;2023-09-18T12:32:42;99912.28;;;25.61;65.92
14612;BME280;7392;52.078;11.650;2023-09-18T12:35:13;99915.50;;;25.66;66.06
14612;BME280;7392;52.078;11.650;2023-09-18T12:37:41;99906.34;;;25.67;65.83
14612;BME280;7392;52.078;11.650;2023-09-18T12:40:22;99910.94;;;25.66;65.61
14612;BME280;7392;52.078;11.650;2023-09-18T12:42:50;99909.06;;;25.67;65.38
14612;BME280;7392;52.078;11.650;2023-09-18T12:45:18;99907.09;;;25.69;66.25
14612;BME280;7392;52.078;11.650;2023-09-18T12:47:46;99906.97;;;25.70;65.66
14612;BME280;7392;52.078;11.650;2023-09-18T12:50:14;99904.25;;;25.70;65.19
14612;BME280;7392;52.078;11.650;2023-09-18T12:52:42;99914.50;;;25.67;65.43
14612;BME280;7392;52.078;11.650;2023-09-18T12:55:22;99918.84;;;25.69;65.88
14612;BME280;7392;52.078;11.650;2023-09-18T12:57:51;99927.00;;;25.69;66.06
14612;BME280;7392;52.078;11.650;2023-09-18T13:00:20;99932.81;;;25.76;66.50
14612;BME280;7392;52.078;11.650;2023-09-18T13:02:49;99932.09;;;25.85;65.79
14612;BME280;7392;52.078;11.650;2023-09-18T13:05:22;99946.72;;;25.96;65.88
14612;BME280;7392;52.078;11.650;2023-09-18T13:07:53;99938.94;;;26.02;65.67